Larrys Creek, Pennsylvania
Current Conditions -  °F | °C
As of 6:54 PM on Saturday 20 Dec 2014 (Local Time) from KIPT Reporting Station
Overcast Overcast  
Wind Chill: 32°   Ceiling: 3300
Heat Index: 32°   Visibility: 10mi
Dew Point: 21°   Wind: 3mph
Humidity: 64%   Direction: 260°W
Pressure: 30.28"   Gusts: NA
Location:  41.1288°N, 77.1989°W
Report Text: KIPT 202354Z 26003KT 10SM OVC033 00/M06 A3028 RMK AO2 SLP258 T00001061 10011 21006 53013
Loading
Personal Weather Stations






























Interactive Weather Map New forecast layout! Learn more

10-Day Weather Forecast

Advertisements
Track Severe Weather on mobile